Main page
METAR-TAF:

METAR-TAF

Airports :

Casement Aerodrome

Dublin, Ireland

latitude: 53-18-06N, longitude: 6-27-04W, elevation: 97 m

Current weather observation

The report was made 55 minutes ago, at 01:00 UTC
Wind 11 kt from the East
Temperature 8°C
Humidity 81%
Pressure 1026 hPa
Visibility 10 km or more
Few clouds at a height of 1500 ft

METAR: EIME 190100Z 09011KT 9999 FEW015 08/05 Q1026

Time: 01:55 (01:55 UTC)

Forecast

The report was made 2 hours and 55 minutes ago, at 23:00 UTC
Forecast valid from 19 at 00 UTC to 19 at 09 UTC
Wind 8 kt from the East
Visibility 10 km or more
Few clouds at a height of 1500 ft
Temporary
from 19 at 07 UTC to 19 at 09 UTC
Wind 15 kt from the East with gusts up to 25 kt

TAF: EIME 182300Z 1900/1909 08008KT 9999 FEW015 TEMPO 1907/1909 09015G25KT

Weather observations and forecasts of more than 4000 airports (METAR and TAF reports).

The available stations are represented by yellow and red dots on the map.

Hover mouse over dot to see the name of the station.

Then click to see weather observations and forecasts.

To change the map : click on the green buttons with a black cross to zoom in, on the green button with a dash to zoom out, or on the green arrows for adjacent maps.


METAR-TAF: